Time;durP1;ratioP1;P1;durP2;ratioP2;P2;SDS_P1;SDS_P2;PMS_P1;PMS_P2;Temp;Humidity;BMP_temperature;BMP_pressure;BME280_temperature;BME280_humidity;BME280_pressure;Samples;Min_cycle;Max_cycle;Signal;HPM_P1;HPM_P2
2022/06/29 00:00:11;;;;;;;2.13;1.83;;;20.50;63.40;;;;;;5098394;28;20214;-68
2022/06/29 00:02:38;;;;;;;1.53;1.43;;;20.40;63.90;;;;;;5099167;28;20444;-68
2022/06/29 00:05:06;;;;;;;5.17;1.80;;;20.40;64.20;;;;;;5097851;28;20467;-68
2022/06/29 00:07:33;;;;;;;1.93;1.73;;;20.40;64.50;;;;;;5096881;28;20451;-67
2022/06/29 00:10:01;;;;;;;1.90;1.67;;;20.40;64.60;;;;;;5096928;28;20440;-68
2022/06/29 00:12:27;;;;;;;2.00;1.80;;;20.40;65.40;;;;;;5096346;28;20436;-68
2022/06/29 00:14:55;;;;;;;1.53;1.43;;;20.30;64.50;;;;;;5096131;28;20467;-68
2022/06/29 00:17:22;;;;;;;2.50;1.90;;;20.30;64.90;;;;;;5096240;28;20451;-68
2022/06/29 00:19:49;;;;;;;2.97;1.93;;;20.30;65.00;;;;;;5096072;28;20456;-68
2022/06/29 00:22:16;;;;;;;2.87;1.70;;;20.40;65.20;;;;;;5096184;28;20447;-68
2022/06/29 00:24:42;;;;;;;4.57;2.00;;;20.40;65.00;;;;;;5095960;28;20459;-68
2022/06/29 00:27:10;;;;;;;2.43;1.90;;;20.40;65.00;;;;;;5096088;28;20451;-68
2022/06/29 00:29:37;;;;;;;2.50;1.30;;;20.50;65.20;;;;;;5095710;28;20451;-68
2022/06/29 00:32:05;;;;;;;3.20;2.30;;;20.50;65.40;;;;;;5095927;28;20474;-68
2022/06/29 00:34:32;;;;;;;3.23;2.07;;;20.40;65.50;;;;;;5095499;28;20969;-68
2022/06/29 00:36:58;;;;;;;2.07;1.80;;;20.30;65.90;;;;;;5095887;28;20440;-68
2022/06/29 00:39:25;;;;;;;1.90;1.70;;;20.20;66.30;;;;;;5095312;28;20451;-70
2022/06/29 00:41:52;;;;;;;2.37;2.10;;;20.10;66.70;;;;;;5095404;28;20479;-68
2022/06/29 00:44:21;;;;;;;2.37;2.10;;;20.10;66.90;;;;;;5095612;28;20468;-68
2022/06/29 00:46:50;;;;;;;2.30;1.87;;;20.00;67.00;;;;;;5095644;28;20459;-68
2022/06/29 00:49:19;;;;;;;2.20;1.80;;;20.00;67.50;;;;;;5095327;28;20822;-68
2022/06/29 00:51:47;;;;;;;3.90;2.30;;;19.90;67.70;;;;;;5095626;28;20471;-68
2022/06/29 00:54:18;;;;;;;4.23;2.07;;;19.90;68.10;;;;;;5095218;28;20960;-68
2022/06/29 00:56:44;;;;;;;2.63;2.03;;;19.90;68.10;;;;;;5095155;28;20761;-68
2022/06/29 00:59:13;;;;;;;3.67;1.80;;;19.90;68.20;;;;;;5095416;28;20443;-68
2022/06/29 01:01:42;;;;;;;2.90;2.33;;;19.90;68.40;;;;;;5095227;28;20475;-68
2022/06/29 01:04:09;;;;;;;3.03;2.50;;;19.80;68.40;;;;;;5095377;28;20506;-68
2022/06/29 01:06:36;;;;;;;2.63;1.90;;;19.80;68.20;;;;;;5095350;28;20444;-68
2022/06/29 01:09:04;;;;;;;3.10;2.30;;;19.80;68.30;;;;;;5094969;28;20947;-68
2022/06/29 01:11:31;;;;;;;2.70;2.20;;;19.80;68.50;;;;;;5095171;28;20497;-68
2022/06/29 01:13:59;;;;;;;5.07;1.93;;;19.80;68.50;;;;;;5094974;28;20464;-68
2022/06/29 01:16:26;;;;;;;3.00;1.80;;;19.80;68.90;;;;;;5095104;28;20439;-68
2022/06/29 01:18:55;;;;;;;2.20;2.00;;;19.80;68.80;;;;;;5095035;28;20450;-68
2022/06/29 01:21:22;;;;;;;2.50;2.30;;;19.80;69.00;;;;;;5095237;28;20464;-68
2022/06/29 01:23:50;;;;;;;2.43;2.23;;;19.80;69.00;;;;;;5094798;28;20506;-68
2022/06/29 01:26:17;;;;;;;2.73;2.00;;;19.70;69.00;;;;;;5095120;28;20451;-68
2022/06/29 01:28:46;;;;;;;4.27;2.00;;;19.70;69.00;;;;;;5094687;28;20452;-68
2022/06/29 01:31:16;;;;;;;2.03;1.83;;;19.60;69.10;;;;;;5094529;28;20436;-68
2022/06/29 01:33:43;;;;;;;2.27;2.07;;;19.50;69.60;;;;;;5094770;28;20468;-69
2022/06/29 01:36:10;;;;;;;2.63;2.10;;;19.40;69.90;;;;;;5094744;28;20451;-68
2022/06/29 01:38:37;;;;;;;2.77;1.93;;;19.40;70.10;;;;;;5094643;28;20467;-68
2022/06/29 01:41:06;;;;;;;1.90;1.80;;;19.30;70.00;;;;;;5094158;28;20819;-68
2022/06/29 01:43:33;;;;;;;2.40;1.87;;;19.30;70.20;;;;;;5094549;28;20483;-68
2022/06/29 01:46:00;;;;;;;4.60;2.57;;;19.30;70.40;;;;;;5094429;28;20446;-68
2022/06/29 01:48:27;;;;;;;4.17;2.70;;;19.30;70.50;;;;;;5094116;28;20440;-68
2022/06/29 01:50:54;;;;;;;1.80;1.70;;;19.30;70.60;;;;;;5093834;28;20937;-67
2022/06/29 01:53:21;;;;;;;3.07;1.93;;;19.30;70.50;;;;;;5093799;28;20460;-68
2022/06/29 01:55:48;;;;;;;3.10;2.10;;;19.30;70.50;;;;;;5073883;28;20469;-68
2022/06/29 01:58:16;;;;;;;2.30;1.93;;;19.30;70.60;;;;;;5073775;28;20793;-68
2022/06/29 02:00:44;;;;;;;2.73;1.97;;;19.40;70.90;;;;;;5073559;28;21021;-68
2022/06/29 02:03:11;;;;;;;4.97;2.30;;;19.30;71.10;;;;;;5073972;28;20535;-68
2022/06/29 02:05:38;;;;;;;2.90;1.93;;;19.20;71.30;;;;;;5073885;28;20472;-68
2022/06/29 02:08:05;;;;;;;3.80;2.53;;;19.20;71.40;;;;;;5073900;28;20441;-68
2022/06/29 02:10:32;;;;;;;2.13;1.93;;;19.20;71.60;;;;;;5073831;28;20441;-68
2022/06/29 02:12:59;;;;;;;2.43;2.23;;;19.20;71.70;;;;;;5073936;28;20789;-68
2022/06/29 02:15:28;;;;;;;4.20;2.20;;;19.20;71.90;;;;;;5073466;28;21064;-68
2022/06/29 02:17:54;;;;;;;2.60;2.10;;;19.10;72.10;;;;;;5073817;28;20448;-68
2022/06/29 02:20:21;;;;;;;1.60;1.50;;;19.10;72.30;;;;;;5073694;28;20881;-68
2022/06/29 02:22:48;;;;;;;4.30;1.67;;;18.90;72.00;;;;;;5073584;28;20455;-68
2022/06/29 02:25:15;;;;;;;2.13;1.90;;;18.90;72.00;;;;;;5073426;28;20468;-68
2022/06/29 02:27:45;;;;;;;2.40;1.70;;;18.80;72.00;;;;;;5073840;28;20444;-67
2022/06/29 02:30:12;;;;;;;2.10;1.67;;;18.70;72.30;;;;;;5073372;28;20463;-67
2022/06/29 02:35:25;;;;;;;5.53;2.30;;;18.70;72.30;;;;;;5074202;28;20960;-67
2022/06/29 02:37:51;;;;;;;2.13;1.93;;;18.70;72.50;;;;;;5075227;28;20451;-67
2022/06/29 02:40:18;;;;;;;3.00;1.70;;;18.70;72.60;;;;;;5073524;28;20447;-68
2022/06/29 02:42:45;;;;;;;2.03;1.90;;;18.60;72.80;;;;;;5073538;28;20445;-68
2022/06/29 02:45:12;;;;;;;2.57;1.70;;;18.50;73.10;;;;;;5073407;28;20472;-68
2022/06/29 02:47:40;;;;;;;3.97;2.10;;;18.50;73.40;;;;;;5073408;28;20460;-67
2022/06/29 02:50:07;;;;;;;1.90;1.80;;;18.50;73.30;;;;;;5073424;28;20452;-67
2022/06/29 02:52:34;;;;;;;2.20;2.00;;;18.50;73.50;;;;;;5073085;28;20954;-67
2022/06/29 02:55:01;;;;;;;4.30;1.83;;;18.50;73.60;;;;;;5073283;28;20839;-68
2022/06/29 02:57:28;;;;;;;2.53;2.07;;;18.50;73.70;;;;;;5073405;28;20471;-68
2022/06/29 02:59:54;;;;;;;1.93;1.83;;;18.60;74.00;;;;;;5073342;28;20440;-67
2022/06/29 03:02:21;;;;;;;3.57;2.17;;;18.60;74.40;;;;;;5073223;28;20889;-68
2022/06/29 03:04:49;;;;;;;2.00;1.90;;;18.50;74.50;;;;;;5077008;28;21024;-68
2022/06/29 03:07:16;;;;;;;2.33;2.00;;;18.50;74.70;;;;;;5077323;28;20440;-68
2022/06/29 03:09:43;;;;;;;2.67;2.37;;;18.40;74.80;;;;;;5076959;28;20539;-68
2022/06/29 03:12:10;;;;;;;5.07;1.60;;;18.40;74.80;;;;;;5077180;28;20432;-67
2022/06/29 03:14:36;;;;;;;2.53;1.63;;;18.30;74.60;;;;;;5077024;28;20464;-68
2022/06/29 03:17:03;;;;;;;9.80;2.83;;;18.20;74.80;;;;;;5076912;28;20448;-68
2022/06/29 03:19:30;;;;;;;2.57;2.33;;;18.10;75.20;;;;;;5077214;28;20455;-67
2022/06/29 03:21:58;;;;;;;3.33;2.20;;;18.10;75.60;;;;;;5076965;28;20487;-67
2022/06/29 03:24:25;;;;;;;2.97;1.67;;;18.00;75.90;;;;;;5076940;28;20464;-68
2022/06/29 03:26:52;;;;;;;2.00;1.90;;;18.00;76.10;;;;;;5077014;28;20455;-67
2022/06/29 03:29:18;;;;;;;2.03;1.83;;;18.00;76.10;;;;;;5076766;28;20555;-68
2022/06/29 03:31:45;;;;;;;3.50;2.30;;;18.00;76.00;;;;;;5077338;28;20444;-68
2022/06/29 03:34:12;;;;;;;2.27;1.87;;;18.00;76.00;;;;;;5076861;28;20475;-68
2022/06/29 03:36:39;;;;;;;3.80;2.00;;;18.00;76.10;;;;;;5076664;28;20452;-68
2022/06/29 03:39:07;;;;;;;4.43;2.20;;;18.00;76.00;;;;;;5076827;28;20440;-68
2022/06/29 03:41:33;;;;;;;3.93;2.50;;;18.10;76.00;;;;;;5076647;28;20484;-68
2022/06/29 03:44:00;;;;;;;4.40;2.40;;;18.10;76.00;;;;;;5076442;28;20469;-68
2022/06/29 03:46:27;;;;;;;2.70;2.20;;;18.10;76.20;;;;;;5076542;28;20447;-68
2022/06/29 03:48:54;;;;;;;3.10;2.60;;;18.10;76.40;;;;;;5076504;28;20440;-68
2022/06/29 03:51:21;;;;;;;5.27;2.10;;;18.10;76.50;;;;;;5076165;28;20953;-68
2022/06/29 03:53:47;;;;;;;4.83;1.93;;;18.00;76.70;;;;;;5076051;28;21098;-69
2022/06/29 03:56:15;;;;;;;3.10;2.37;;;17.90;77.00;;;;;;5076576;28;20787;-68
2022/06/29 03:58:42;;;;;;;2.23;2.00;;;17.90;77.40;;;;;;5076315;28;20460;-68
2022/06/29 04:01:09;;;;;;;3.30;2.07;;;17.90;77.50;;;;;;5076155;28;20491;-68
2022/06/29 04:03:36;;;;;;;38.97;2.83;;;17.90;77.60;;;;;;5075816;28;21013;-68
2022/06/29 04:06:03;;;;;;;3.80;2.80;;;17.80;77.80;;;;;;5076198;28;20789;-68
2022/06/29 04:08:29;;;;;;;3.57;2.47;;;17.70;77.90;;;;;;5076123;28;20447;-68
2022/06/29 04:10:56;;;;;;;2.93;2.10;;;17.70;78.30;;;;;;5075833;28;20440;-68
2022/06/29 04:13:24;;;;;;;4.40;2.70;;;17.70;78.70;;;;;;5076014;28;20452;-69
2022/06/29 04:15:51;;;;;;;2.83;2.00;;;17.70;79.10;;;;;;5075079;28;20449;-68
2022/06/29 04:18:18;;;;;;;3.00;2.10;;;17.70;79.30;;;;;;5076017;28;20498;-68
2022/06/29 04:23:29;;;;;;;2.50;2.30;;;17.70;80.10;;;;;;5075653;28;20420;-69
2022/06/29 04:25:56;;;;;;;5.13;2.37;;;17.80;80.70;;;;;;5075849;28;20448;-68
2022/06/29 04:28:24;;;;;;;2.67;2.10;;;17.90;81.10;;;;;;5075824;28;20453;-68
2022/06/29 04:30:50;;;;;;;3.23;2.60;;;17.90;81.10;;;;;;5075471;28;20453;-68
2022/06/29 04:33:17;;;;;;;4.30;3.77;;;18.00;81.50;;;;;;5075429;28;20875;-68
2022/06/29 04:35:44;;;;;;;5.17;2.13;;;18.00;81.70;;;;;;5075335;28;20469;-68
2022/06/29 04:38:11;;;;;;;3.63;3.07;;;18.10;81.70;;;;;;5075337;28;20937;-68
2022/06/29 04:40:38;;;;;;;4.07;2.80;;;18.20;81.80;;;;;;5075697;28;20440;-68
2022/06/29 04:43:04;;;;;;;2.80;2.60;;;18.20;81.80;;;;;;5075548;28;20476;-68
2022/06/29 04:48:17;;;;;;;2.60;2.40;;;18.30;82.80;;;;;;5075614;28;20412;-71
2022/06/29 04:50:43;;;;;;;4.47;3.23;;;18.30;83.30;;;;;;5075148;28;20974;-72
2022/06/29 04:53:10;;;;;;;4.00;3.17;;;18.30;83.80;;;;;;5075135;28;20922;-72
2022/06/29 04:55:37;;;;;;;3.17;2.87;;;18.30;84.50;;;;;;5075199;28;20489;-71
2022/06/29 04:58:04;;;;;;;4.77;3.40;;;18.40;84.80;;;;;;5075502;28;20451;-71
2022/06/29 05:00:30;;;;;;;5.40;3.17;;;18.40;84.80;;;;;;5075391;28;20441;-71
2022/06/29 05:02:58;;;;;;;3.93;2.93;;;18.50;85.20;;;;;;5074941;28;21012;-71
2022/06/29 05:05:25;;;;;;;3.07;2.80;;;18.60;85.40;;;;;;5074900;28;20811;-71
2022/06/29 05:07:52;;;;;;;3.70;3.00;;;18.70;85.70;;;;;;5075628;28;20449;-71
2022/06/29 05:10:19;;;;;;;4.10;3.70;;;18.80;85.80;;;;;;5075584;28;20821;-71
2022/06/29 05:12:46;;;;;;;7.37;3.37;;;18.90;86.10;;;;;;5076244;28;20441;-72
2022/06/29 05:15:13;;;;;;;3.17;2.87;;;19.00;86.40;;;;;;5075105;28;20464;-72
2022/06/29 05:17:39;;;;;;;6.80;2.90;;;19.10;87.00;;;;;;5074879;28;20459;-72
2022/06/29 05:20:09;;;;;;;9.03;4.00;;;19.20;85.50;;;;;;5074890;28;20445;-72
2022/06/29 05:22:37;;;;;;;4.13;3.73;;;19.30;84.90;;;;;;5075398;28;20498;-72
2022/06/29 05:25:04;;;;;;;4.43;3.20;;;19.40;85.00;;;;;;5074681;28;20475;-71
2022/06/29 05:27:31;;;;;;;9.43;3.70;;;19.50;85.90;;;;;;5074717;28;20448;-71
2022/06/29 05:29:58;;;;;;;8.07;3.23;;;19.60;86.40;;;;;;5074321;28;20456;-71
2022/06/29 05:32:25;;;;;;;5.67;3.40;;;19.80;87.40;;;;;;5074526;28;20445;-71
2022/06/29 05:34:52;;;;;;;8.00;3.30;;;19.90;87.50;;;;;;5074524;28;20464;-72
2022/06/29 05:37:20;;;;;;;4.60;3.10;;;20.00;88.20;;;;;;5074491;28;20445;-72
2022/06/29 05:39:47;;;;;;;3.07;2.20;;;20.10;88.80;;;;;;5074451;28;20445;-72
2022/06/29 05:42:13;;;;;;;4.17;2.70;;;20.20;89.10;;;;;;5074322;28;20477;-72
2022/06/29 05:44:41;;;;;;;4.07;2.80;;;20.40;88.70;;;;;;5074273;28;20472;-68
2022/06/29 05:47:09;;;;;;;5.43;2.40;;;20.50;88.40;;;;;;5073970;28;20791;-68
2022/06/29 05:49:36;;;;;;;7.13;3.20;;;20.60;87.40;;;;;;5074296;28;20429;-68
2022/06/29 05:52:04;;;;;;;7.47;3.07;;;20.80;86.10;;;;;;5074086;28;20448;-68
2022/06/29 05:54:32;;;;;;;4.17;2.90;;;20.90;85.30;;;;;;5073839;28;20820;-68
2022/06/29 05:57:00;;;;;;;5.83;3.00;;;21.00;83.90;;;;;;5073985;28;20938;-68
2022/06/29 05:59:26;;;;;;;7.57;3.40;;;21.20;82.50;;;;;;5074128;28;20440;-68
2022/06/29 06:01:53;;;;;;;7.80;3.50;;;21.30;79.80;;;;;;5073728;28;20961;-68
2022/06/29 06:04:20;;;;;;;9.07;3.37;;;21.50;78.30;;;;;;5073631;28;20471;-69
2022/06/29 06:06:47;;;;;;;4.73;2.33;;;21.60;77.30;;;;;;5073926;28;20449;-68
2022/06/29 06:09:13;;;;;;;4.47;3.30;;;21.70;76.20;;;;;;5073621;28;20455;-68
2022/06/29 06:11:41;;;;;;;5.70;3.33;;;21.80;75.40;;;;;;5073902;28;20445;-68
2022/06/29 06:14:09;;;;;;;9.07;3.97;;;21.90;75.10;;;;;;5073898;28;20480;-69
2022/06/29 06:16:36;;;;;;;8.57;3.47;;;22.00;75.20;;;;;;5074303;28;20495;-68
2022/06/29 06:19:02;;;;;;;6.57;3.50;;;22.10;75.70;;;;;;5073633;28;20938;-68
2022/06/29 06:21:29;;;;;;;4.07;2.97;;;22.20;75.60;;;;;;5073660;28;20449;-68
2022/06/29 06:23:56;;;;;;;4.60;3.07;;;22.40;74.50;;;;;;5073413;28;21000;-68
2022/06/29 06:26:22;;;;;;;8.13;3.47;;;22.50;73.20;;;;;;5073444;28;20429;-68
2022/06/29 06:28:52;;;;;;;5.37;3.73;;;22.50;74.00;;;;;;5073815;28;20456;-68
2022/06/29 06:31:19;;;;;;;7.67;4.30;;;22.70;74.70;;;;;;5073590;28;20520;-69
2022/06/29 06:33:45;;;;;;;5.63;3.67;;;22.70;74.20;;;;;;5073629;28;20912;-69
2022/06/29 06:36:12;;;;;;;9.30;4.70;;;22.80;74.90;;;;;;5073574;28;20462;-68
2022/06/29 06:38:39;;;;;;;11.23;3.70;;;22.90;75.60;;;;;;5072770;28;20535;-68
2022/06/29 06:41:22;;;;;;;5.67;3.70;;;23.00;75.00;;;;;;5073282;28;20445;-72
2022/06/29 06:43:51;;;;;;;9.30;3.57;;;23.10;72.80;;;;;;5073200;28;20512;-71
2022/06/29 06:46:18;;;;;;;4.47;4.03;;;23.20;69.30;;;;;;5073319;28;20801;-72
2022/06/29 06:48:45;;;;;;;5.60;3.53;;;23.30;67.30;;;;;;5073567;28;20453;-73
2022/06/29 06:51:12;;;;;;;5.17;2.90;;;23.40;70.80;;;;;;5073685;28;20445;-72
2022/06/29 06:53:39;;;;;;;6.60;3.10;;;23.40;71.80;;;;;;5073378;28;20948;-72
2022/06/29 06:56:07;;;;;;;4.60;2.63;;;23.50;70.40;;;;;;5073206;28;20976;-73
2022/06/29 06:58:35;;;;;;;3.50;2.50;;;23.60;68.20;;;;;;5073948;28;20433;-72
2022/06/29 07:01:04;;;;;;;2.43;2.23;;;23.60;66.20;;;;;;5074727;28;20480;-72
2022/06/29 07:03:32;;;;;;;3.33;2.23;;;23.60;65.00;;;;;;5073273;28;20491;-72
2022/06/29 07:06:00;;;;;;;3.40;2.63;;;23.70;64.70;;;;;;5073907;28;20456;-72
2022/06/29 07:08:27;;;;;;;7.47;3.03;;;23.70;64.70;;;;;;5073360;28;20420;-73
2022/06/29 07:10:54;;;;;;;6.67;2.53;;;23.80;63.20;;;;;;5073274;28;20455;-73
2022/06/29 07:13:20;;;;;;;2.00;1.90;;;23.80;62.30;;;;;;5073290;28;20441;-72
2022/06/29 07:15:47;;;;;;;5.23;2.47;;;23.80;61.40;;;;;;5073157;28;20448;-72
2022/06/29 07:18:15;;;;;;;3.40;2.53;;;23.80;62.90;;;;;;5073304;28;20452;-72
2022/06/29 07:20:42;;;;;;;2.83;2.50;;;23.80;63.90;;;;;;5073263;28;20471;-73
2022/06/29 07:23:09;;;;;;;6.63;2.70;;;23.80;62.10;;;;;;5073222;28;20480;-72
2022/06/29 07:25:36;;;;;;;2.80;2.40;;;23.80;61.10;;;;;;5073129;28;20472;-72
2022/06/29 07:28:03;;;;;;;3.57;2.60;;;23.80;60.50;;;;;;5073301;28;20449;-73
2022/06/29 07:30:29;;;;;;;4.57;1.97;;;23.90;59.80;;;;;;5073031;28;20487;-73
2022/06/29 07:32:56;;;;;;;3.27;2.67;;;23.90;59.50;;;;;;5073409;28;20527;-72
2022/06/29 07:35:26;;;;;;;4.97;3.10;;;24.00;60.30;;;;;;5073671;28;20471;-69
2022/06/29 07:37:53;;;;;;;2.53;2.30;;;24.00;61.70;;;;;;5073553;28;20477;-69
2022/06/29 07:40:20;;;;;;;3.00;2.73;;;24.10;62.30;;;;;;5073062;28;20448;-69
2022/06/29 07:42:47;;;;;;;5.20;3.07;;;24.10;61.70;;;;;;5072902;28;21001;-69
2022/06/29 07:45:14;;;;;;;3.80;2.97;;;24.20;60.20;;;;;;5073199;28;20479;-69
2022/06/29 07:47:41;;;;;;;3.57;2.57;;;24.20;59.10;;;;;;5073185;28;20456;-69
2022/06/29 07:50:10;;;;;;;5.50;2.73;;;24.20;57.90;;;;;;5073985;28;20952;-69
2022/06/29 07:52:39;;;;;;;5.83;2.80;;;24.20;57.10;;;;;;5077049;28;20520;-68
2022/06/29 07:55:06;;;;;;;4.07;2.53;;;24.20;57.70;;;;;;5076668;28;20483;-69
2022/06/29 07:57:33;;;;;;;4.80;2.50;;;24.20;59.20;;;;;;5076646;28;20462;-69
2022/06/29 08:00:00;;;;;;;7.13;3.00;;;24.20;61.00;;;;;;5076684;28;20451;-69
2022/06/29 08:02:26;;;;;;;5.83;2.63;;;24.20;61.90;;;;;;5076424;28;20476;-69
2022/06/29 08:04:53;;;;;;;6.67;2.77;;;24.20;61.40;;;;;;5076412;28;20474;-69
2022/06/29 08:07:20;;;;;;;5.23;2.20;;;24.30;61.00;;;;;;5076293;28;20451;-69
2022/06/29 08:09:49;;;;;;;4.27;2.47;;;24.40;62.40;;;;;;5076675;28;20448;-69
2022/06/29 08:12:16;;;;;;;6.80;2.63;;;24.40;63.60;;;;;;5076375;28;20479;-69
2022/06/29 08:14:44;;;;;;;4.83;2.90;;;24.50;62.50;;;;;;5076443;28;20495;-70
2022/06/29 08:17:10;;;;;;;5.83;2.47;;;24.50;62.20;;;;;;5076576;28;20787;-69
2022/06/29 08:19:37;;;;;;;5.70;2.40;;;24.60;62.80;;;;;;5076243;28;20444;-69
2022/06/29 08:22:04;;;;;;;3.03;2.30;;;24.70;62.40;;;;;;5076386;28;20453;-69
2022/06/29 08:24:31;;;;;;;6.50;2.07;;;24.80;61.40;;;;;;5076259;28;20461;-68
2022/06/29 08:26:59;;;;;;;4.87;2.60;;;25.00;60.40;;;;;;5077247;28;20433;-69
2022/06/29 08:29:26;;;;;;;6.83;2.63;;;25.20;59.90;;;;;;5076334;28;20456;-69
2022/06/29 08:31:53;;;;;;;12.47;2.47;;;25.40;58.60;;;;;;5076248;28;20449;-69
2022/06/29 08:34:20;;;;;;;5.10;2.33;;;25.50;57.30;;;;;;5076669;28;20535;-69
2022/06/29 08:36:46;;;;;;;9.73;2.47;;;25.60;57.20;;;;;;5076631;28;20452;-71
2022/06/29 08:39:13;;;;;;;3.93;2.43;;;25.70;56.40;;;;;;5076538;28;20449;-71
2022/06/29 08:41:41;;;;;;;2.60;2.40;;;25.70;56.00;;;;;;5076943;28;20791;-70
2022/06/29 08:44:09;;;;;;;4.03;2.50;;;25.70;56.20;;;;;;5076278;28;20553;-70
2022/06/29 08:46:36;;;;;;;8.87;3.07;;;25.70;55.70;;;;;;5076405;28;20456;-71
2022/06/29 08:49:03;;;;;;;5.33;2.10;;;25.80;55.70;;;;;;5076001;28;20527;-70
2022/06/29 08:51:34;;;;;;;5.87;2.30;;;25.90;55.70;;;;;;5075608;28;20449;-70
2022/06/29 08:54:03;;;;;;;5.40;2.30;;;26.00;55.50;;;;;;5075577;28;20514;-70
2022/06/29 08:56:31;;;;;;;4.87;2.20;;;26.10;56.10;;;;;;5075550;28;20452;-70
2022/06/29 08:59:00;;;;;;;3.90;2.30;;;26.20;55.60;;;;;;5075708;28;20455;-71
2022/06/29 09:01:29;;;;;;;7.10;2.60;;;26.30;55.30;;;;;;5075470;28;20873;-71
2022/06/29 09:03:56;;;;;;;8.70;2.77;;;26.30;55.40;;;;;;5076154;28;20488;-71
2022/06/29 09:06:23;;;;;;;5.60;2.13;;;26.30;55.50;;;;;;5077799;28;20823;-71
2022/06/29 09:08:51;;;;;;;4.00;2.23;;;26.30;55.30;;;;;;5078306;28;20515;-71
2022/06/29 09:11:22;;;;;;;4.90;2.20;;;26.30;54.50;;;;;;5076445;28;20500;-71
2022/06/29 09:14:07;;;;;;;5.20;2.80;;;26.30;54.10;;;;;;5074825;28;20464;-71
2022/06/29 09:16:55;;;;;;;4.43;2.50;;;26.30;55.00;;;;;;5074717;28;20902;-70
2022/06/29 09:19:23;;;;;;;5.37;2.57;;;26.40;55.10;;;;;;5074909;28;20482;-71
2022/06/29 09:21:53;;;;;;;5.37;2.53;;;26.40;55.00;;;;;;5074609;28;20972;-71
2022/06/29 09:24:21;;;;;;;3.20;1.97;;;26.40;54.70;;;;;;5074445;28;20492;-70
2022/06/29 09:26:51;;;;;;;4.70;2.47;;;26.40;54.70;;;;;;5074776;28;20517;-71
2022/06/29 09:29:23;;;;;;;4.53;2.17;;;26.40;54.80;;;;;;5074275;28;20981;-71
2022/06/29 09:32:28;;;;;;;4.03;2.67;;;26.40;55.00;;;;;;5074653;28;20448;-71
2022/06/29 09:34:54;;;;;;;4.70;2.70;;;26.30;55.40;;;;;;5032279;28;20569;-70
2022/06/29 09:37:23;;;;;;;4.63;2.83;;;26.30;55.40;;;;;;5032612;28;20541;-71
2022/06/29 09:39:51;;;;;;;3.00;2.23;;;26.30;55.80;;;;;;5052792;28;20485;-70
2022/06/29 09:42:19;;;;;;;4.47;2.50;;;26.30;55.20;;;;;;5074151;28;20433;-71
2022/06/29 09:44:47;;;;;;;4.23;2.90;;;26.30;55.20;;;;;;5074233;28;20457;-71
2022/06/29 09:47:16;;;;;;;8.20;3.47;;;26.40;55.50;;;;;;5074334;28;20449;-70
2022/06/29 09:49:45;;;;;;;6.90;3.17;;;26.50;55.90;;;;;;5074288;28;20448;-71
2022/06/29 09:52:13;;;;;;;3.47;2.90;;;26.70;55.50;;;;;;5074230;28;20467;-70
2022/06/29 09:54:41;;;;;;;5.30;3.13;;;26.80;54.80;;;;;;5074000;28;20568;-70
2022/06/29 09:57:09;;;;;;;3.93;2.83;;;27.00;54.60;;;;;;5073941;28;20431;-71
2022/06/29 10:02:36;;;;;;;3.10;2.80;;;27.40;53.10;;;;;;5074013;28;20459;-70
2022/06/29 10:05:06;;;;;;;3.93;3.00;;;27.70;52.50;;;;;;5074096;28;20471;-71
2022/06/29 10:07:35;;;;;;;4.80;3.23;;;27.80;52.30;;;;;;5074008;28;20425;-71
2022/06/29 10:10:04;;;;;;;6.40;3.60;;;27.80;50.70;;;;;;5073909;28;20472;-70
2022/06/29 10:15:37;;;;;;;4.90;3.40;;;27.80;49.50;;;;;;5073739;28;20533;-72
2022/06/29 10:18:14;;;;;;;8.60;3.00;;;27.70;49.00;;;;;;5073602;28;20942;-73
2022/06/29 10:20:46;;;;;;;5.93;3.77;;;27.60;49.30;;;;;;5073800;28;20440;-73
2022/06/29 10:23:46;;;;;;;9.83;4.97;;;27.70;49.90;;;;;;5073683;28;20521;-72
2022/06/29 10:26:41;;;;;;;3.63;3.33;;;27.80;49.10;;;;;;5073772;28;20483;-72
2022/06/29 10:29:29;;;;;;;6.37;2.83;;;27.80;48.00;;;;;;5073502;28;20467;-73
2022/06/29 10:32:16;;;;;;;6.37;3.27;;;28.10;48.80;;;;;;5073759;28;20432;-72
2022/06/29 10:37:32;;;;;;;6.03;3.30;;;28.40;46.20;;;;;;5073719;28;20416;-72
2022/06/29 10:40:08;;;;;;;6.40;3.40;;;28.40;46.30;;;;;;5073266;28;20449;-72
2022/06/29 10:45:25;;;;;;;5.07;3.17;;;28.70;46.90;;;;;;5073324;28;20463;-72
2022/06/29 10:48:29;;;;;;;5.70;2.90;;;28.80;46.40;;;;;;5073310;28;20964;-72
2022/06/29 10:50:56;;;;;;;4.73;3.00;;;29.00;46.00;;;;;;5073351;28;20910;-72
2022/06/29 10:53:25;;;;;;;6.57;3.20;;;29.20;46.50;;;;;;5073429;28;20433;-72
2022/06/29 10:55:54;;;;;;;4.10;2.70;;;29.40;45.70;;;;;;5074076;28;20457;-73
2022/06/29 10:58:21;;;;;;;3.53;3.00;;;29.70;45.10;;;;;;5073997;28;20444;-73
2022/06/29 11:00:52;;;;;;;5.70;3.17;;;30.20;44.80;;;;;;5073021;28;21016;-73
2022/06/29 11:03:22;;;;;;;5.40;2.83;;;30.50;42.90;;;;;;5073193;28;20460;-73
2022/06/29 11:15:39;;;;;;;3.83;2.63;;;30.60;42.40;;;;;;5073248;28;20646;-71
2022/06/29 11:16:55;;;;;;;4.63;2.60;;;30.60;42.80;;;;;;5072838;28;20448;-71
2022/06/29 11:19:28;;;;;;;4.57;2.60;;;30.60;42.70;;;;;;5073194;28;20491;-71
2022/06/29 11:22:11;;;;;;;3.00;2.30;;;30.80;41.40;;;;;;5072982;28;20967;-72
2022/06/29 11:24:57;;;;;;;3.10;2.33;;;31.00;39.70;;;;;;5075436;28;20862;-71
2022/06/29 11:27:31;;;;;;;3.10;2.80;;;31.70;39.80;;;;;;5077225;28;20444;-71
2022/06/29 11:29:58;;;;;;;2.50;2.23;;;32.60;38.60;;;;;;5077089;28;20459;-71
2022/06/29 11:32:33;;;;;;;2.30;2.10;;;33.30;35.20;;;;;;5077241;28;20448;-72
2022/06/29 11:35:00;;;;;;;2.53;2.33;;;34.20;35.10;;;;;;5077616;28;20516;-71
2022/06/29 11:37:27;;;;;;;3.50;2.57;;;35.40;32.40;;;;;;5077411;28;20450;-69
2022/06/29 11:39:55;;;;;;;5.40;2.57;;;36.60;28.20;;;;;;5077595;28;20455;-68
2022/06/29 11:45:08;;;;;;;4.30;2.53;;;38.80;26.20;;;;;;5078572;28;20232;-68
2022/06/29 11:47:35;;;;;;;3.28;2.40;;;39.80;25.90;;;;;;5079726;28;20208;-68
2022/06/29 11:50:13;;;;;;;4.85;1.77;;;40.60;24.80;;;;;;5078444;28;20205;-68
2022/06/29 11:52:39;;;;;;;2.95;2.03;;;41.40;24.10;;;;;;5077912;28;20212;-68
2022/06/29 11:55:08;;;;;;;4.45;2.40;;;42.10;23.40;;;;;;5077302;28;20218;-69
2022/06/29 11:57:35;;;;;;;3.72;2.45;;;42.70;22.80;;;;;;5076641;28;20666;-70
2022/06/29 12:00:06;;;;;;;3.35;2.15;;;43.30;22.60;;;;;;5077547;28;20557;-71
2022/06/29 12:02:34;;;;;;;2.42;1.60;;;43.70;20.20;;;;;;5076889;28;20190;-71
2022/06/29 12:05:01;;;;;;;2.42;1.60;;;44.10;20.60;;;;;;5076835;28;20236;-70
2022/06/29 12:07:30;;;;;;;3.17;1.88;;;44.50;19.50;;;;;;5076092;28;20202;-70
2022/06/29 12:10:00;;;;;;;1.70;1.60;;;44.90;19.50;;;;;;5076353;28;20186;-71
2022/06/29 12:12:28;;;;;;;2.50;1.75;;;45.20;19.50;;;;;;5076297;28;20552;-71
2022/06/29 12:14:55;;;;;;;4.05;1.90;;;45.60;19.40;;;;;;5075911;28;20312;-72
2022/06/29 12:17:22;;;;;;;1.80;1.70;;;46.00;19.10;;;;;;5076179;28;20190;-71
2022/06/29 12:19:49;;;;;;;3.20;1.90;;;46.30;17.70;;;;;;5076105;28;20308;-71
2022/06/29 12:22:16;;;;;;;2.42;1.73;;;46.30;15.80;;;;;;5075973;28;20186;-71
2022/06/29 12:24:43;;;;;;;2.85;1.42;;;46.00;16.00;;;;;;5075862;28;20230;-71
2022/06/29 12:27:10;;;;;;;1.90;1.45;;;46.10;15.80;;;;;;5075991;28;20186;-71
2022/06/29 12:29:38;;;;;;;2.13;1.52;;;46.10;16.30;;;;;;5075593;28;20304;-72
2022/06/29 12:32:05;;;;;;;1.98;1.60;;;46.50;17.90;;;;;;5075795;28;20216;-72
2022/06/29 12:34:32;;;;;;;3.13;1.60;;;47.00;17.90;;;;;;5075725;28;20225;-72
2022/06/29 12:36:59;;;;;;;5.88;1.88;;;47.40;17.40;;;;;;5075015;28;20209;-71
2022/06/29 12:39:26;;;;;;;2.30;1.58;;;47.40;17.10;;;;;;5075647;28;20202;-71
2022/06/29 12:41:53;;;;;;;2.20;2.00;;;47.00;17.50;;;;;;5075605;28;20212;-71
2022/06/29 12:44:20;;;;;;;3.25;1.90;;;46.30;17.70;;;;;;5075138;28;20699;-71
2022/06/29 12:46:49;;;;;;;2.03;1.83;;;45.60;18.20;;;;;;5075576;28;20193;-71
2022/06/29 12:49:15;;;;;;;4.30;1.98;;;45.10;17.50;;;;;;5075636;28;20190;-71
2022/06/29 12:51:42;;;;;;;2.47;1.88;;;44.90;18.00;;;;;;5075470;28;20213;-71
2022/06/29 12:54:09;;;;;;;2.13;1.75;;;44.90;18.40;;;;;;5075411;28;20231;-71
2022/06/29 12:56:36;;;;;;;4.18;1.75;;;45.20;18.90;;;;;;5075145;28;20627;-71
2022/06/29 12:59:03;;;;;;;2.92;1.98;;;45.60;18.80;;;;;;5075025;28;20550;-71
2022/06/29 13:01:30;;;;;;;3.15;1.67;;;46.30;17.60;;;;;;5075308;28;20186;-71
2022/06/29 13:03:59;;;;;;;2.65;1.67;;;46.80;16.50;;;;;;5075141;28;20237;-71
2022/06/29 13:06:25;;;;;;;1.92;1.50;;;47.40;16.60;;;;;;5075278;28;20197;-72
2022/06/29 13:08:52;;;;;;;2.20;1.48;;;47.90;15.90;;;;;;5075156;28;20190;-72
2022/06/29 13:11:19;;;;;;;1.60;1.50;;;48.40;15.70;;;;;;5075371;28;20213;-72
2022/06/29 13:13:46;;;;;;;2.17;1.60;;;48.90;15.50;;;;;;5074790;28;20222;-71
2022/06/29 13:16:13;;;;;;;1.85;1.48;;;49.30;16.00;;;;;;5074884;28;20185;-72
2022/06/29 13:18:39;;;;;;;4.35;1.70;;;49.60;15.60;;;;;;5074978;28;20193;-72
2022/06/29 13:21:08;;;;;;;1.55;1.23;;;49.90;13.50;;;;;;5074931;28;20204;-71